sensor_id;sensor_type;location;lat;lon;timestamp;P1;durP1;ratioP1;P2;durP2;ratioP2
8540;SDS011;4308;51.294;6.590;2023-05-21T00:00:29;15.10;;;11.23;;
8540;SDS011;4308;51.294;6.590;2023-05-21T00:02:56;15.27;;;10.07;;
8540;SDS011;4308;51.294;6.590;2023-05-21T00:05:24;16.33;;;12.03;;
8540;SDS011;4308;51.294;6.590;2023-05-21T00:07:51;15.40;;;12.10;;
8540;SDS011;4308;51.294;6.590;2023-05-21T00:10:19;15.37;;;11.50;;
8540;SDS011;4308;51.294;6.590;2023-05-21T00:12:47;16.33;;;11.80;;
8540;SDS011;4308;51.294;6.590;2023-05-21T00:15:14;17.27;;;12.50;;
8540;SDS011;4308;51.294;6.590;2023-05-21T00:17:42;14.97;;;12.03;;
8540;SDS011;4308;51.294;6.590;2023-05-21T00:20:10;16.07;;;11.60;;
8540;SDS011;4308;51.294;6.590;2023-05-21T00:22:37;15.93;;;12.23;;
8540;SDS011;4308;51.294;6.590;2023-05-21T00:25:05;18.27;;;13.50;;
8540;SDS011;4308;51.294;6.590;2023-05-21T00:27:33;18.97;;;13.33;;
8540;SDS011;4308;51.294;6.590;2023-05-21T00:30:01;18.40;;;13.57;;
8540;SDS011;4308;51.294;6.590;2023-05-21T00:32:29;16.37;;;12.67;;
8540;SDS011;4308;51.294;6.590;2023-05-21T00:34:56;19.77;;;12.43;;
8540;SDS011;4308;51.294;6.590;2023-05-21T00:37:24;14.73;;;10.10;;
8540;SDS011;4308;51.294;6.590;2023-05-21T00:39:51;16.63;;;11.93;;
8540;SDS011;4308;51.294;6.590;2023-05-21T00:42:19;14.47;;;9.80;;
8540;SDS011;4308;51.294;6.590;2023-05-21T00:44:47;17.60;;;12.40;;
8540;SDS011;4308;51.294;6.590;2023-05-21T00:47:15;14.43;;;10.93;;
8540;SDS011;4308;51.294;6.590;2023-05-21T00:49:42;17.20;;;11.53;;
8540;SDS011;4308;51.294;6.590;2023-05-21T00:52:10;14.57;;;10.77;;
8540;SDS011;4308;51.294;6.590;2023-05-21T00:54:37;14.33;;;11.37;;
8540;SDS011;4308;51.294;6.590;2023-05-21T00:57:05;13.90;;;9.33;;
8540;SDS011;4308;51.294;6.590;2023-05-21T00:59:33;14.87;;;11.53;;
8540;SDS011;4308;51.294;6.590;2023-05-21T01:02:00;13.33;;;10.10;;
8540;SDS011;4308;51.294;6.590;2023-05-21T01:04:29;15.87;;;10.40;;
8540;SDS011;4308;51.294;6.590;2023-05-21T01:06:57;14.57;;;9.97;;
8540;SDS011;4308;51.294;6.590;2023-05-21T01:09:25;13.43;;;10.77;;
8540;SDS011;4308;51.294;6.590;2023-05-21T01:11:53;12.13;;;9.67;;
8540;SDS011;4308;51.294;6.590;2023-05-21T01:14:21;14.27;;;9.00;;
8540;SDS011;4308;51.294;6.590;2023-05-21T01:16:50;16.07;;;10.53;;
8540;SDS011;4308;51.294;6.590;2023-05-21T01:19:19;13.67;;;9.50;;
8540;SDS011;4308;51.294;6.590;2023-05-21T01:21:49;14.83;;;11.20;;
8540;SDS011;4308;51.294;6.590;2023-05-21T01:24:16;13.83;;;9.70;;
8540;SDS011;4308;51.294;6.590;2023-05-21T01:26:44;13.83;;;9.87;;
8540;SDS011;4308;51.294;6.590;2023-05-21T01:29:15;16.00;;;10.80;;
8540;SDS011;4308;51.294;6.590;2023-05-21T01:34:24;12.73;;;8.43;;
8540;SDS011;4308;51.294;6.590;2023-05-21T01:36:56;14.23;;;9.63;;
8540;SDS011;4308;51.294;6.590;2023-05-21T01:39:27;9.80;;;6.77;;
8540;SDS011;4308;51.294;6.590;2023-05-21T01:41:56;13.13;;;8.23;;
8540;SDS011;4308;51.294;6.590;2023-05-21T01:44:23;12.47;;;8.70;;
8540;SDS011;4308;51.294;6.590;2023-05-21T01:46:52;13.70;;;8.77;;
8540;SDS011;4308;51.294;6.590;2023-05-21T01:49:20;17.00;;;7.83;;
8540;SDS011;4308;51.294;6.590;2023-05-21T01:51:48;13.33;;;8.73;;
8540;SDS011;4308;51.294;6.590;2023-05-21T01:54:16;13.13;;;7.70;;
8540;SDS011;4308;51.294;6.590;2023-05-21T01:56:43;11.77;;;8.27;;
8540;SDS011;4308;51.294;6.590;2023-05-21T01:59:11;10.30;;;8.60;;
8540;SDS011;4308;51.294;6.590;2023-05-21T02:01:39;12.63;;;9.63;;
8540;SDS011;4308;51.294;6.590;2023-05-21T02:04:06;12.17;;;7.83;;
8540;SDS011;4308;51.294;6.590;2023-05-21T02:06:34;10.60;;;7.37;;
8540;SDS011;4308;51.294;6.590;2023-05-21T02:09:02;12.17;;;9.07;;
8540;SDS011;4308;51.294;6.590;2023-05-21T02:11:29;10.43;;;7.00;;
8540;SDS011;4308;51.294;6.590;2023-05-21T02:13:57;9.37;;;7.27;;
8540;SDS011;4308;51.294;6.590;2023-05-21T02:16:24;8.80;;;7.53;;
8540;SDS011;4308;51.294;6.590;2023-05-21T02:18:52;9.07;;;7.93;;
8540;SDS011;4308;51.294;6.590;2023-05-21T02:21:20;9.97;;;7.47;;
8540;SDS011;4308;51.294;6.590;2023-05-21T02:23:47;11.47;;;7.90;;
8540;SDS011;4308;51.294;6.590;2023-05-21T02:26:15;8.57;;;6.50;;
8540;SDS011;4308;51.294;6.590;2023-05-21T02:28:42;8.33;;;7.43;;
8540;SDS011;4308;51.294;6.590;2023-05-21T02:31:10;11.37;;;7.80;;
8540;SDS011;4308;51.294;6.590;2023-05-21T02:33:41;10.63;;;8.03;;
8540;SDS011;4308;51.294;6.590;2023-05-21T02:36:08;11.33;;;8.20;;
8540;SDS011;4308;51.294;6.590;2023-05-21T02:38:36;8.90;;;8.00;;
8540;SDS011;4308;51.294;6.590;2023-05-21T02:41:04;8.93;;;7.40;;
8540;SDS011;4308;51.294;6.590;2023-05-21T02:43:31;10.30;;;8.50;;
8540;SDS011;4308;51.294;6.590;2023-05-21T02:45:59;13.10;;;9.07;;
8540;SDS011;4308;51.294;6.590;2023-05-21T02:48:26;12.33;;;8.80;;
8540;SDS011;4308;51.294;6.590;2023-05-21T02:50:54;11.20;;;8.90;;
8540;SDS011;4308;51.294;6.590;2023-05-21T02:53:22;11.70;;;8.00;;
8540;SDS011;4308;51.294;6.590;2023-05-21T02:55:49;11.30;;;8.87;;
8540;SDS011;4308;51.294;6.590;2023-05-21T02:58:17;11.50;;;9.20;;
8540;SDS011;4308;51.294;6.590;2023-05-21T03:00:45;13.13;;;9.73;;
8540;SDS011;4308;51.294;6.590;2023-05-21T03:03:12;10.87;;;8.97;;
8540;SDS011;4308;51.294;6.590;2023-05-21T03:05:40;12.60;;;8.23;;
8540;SDS011;4308;51.294;6.590;2023-05-21T03:08:07;12.70;;;8.83;;
8540;SDS011;4308;51.294;6.590;2023-05-21T03:10:35;9.63;;;7.87;;
8540;SDS011;4308;51.294;6.590;2023-05-21T03:13:03;11.07;;;9.27;;
8540;SDS011;4308;51.294;6.590;2023-05-21T03:15:33;12.17;;;8.67;;
8540;SDS011;4308;51.294;6.590;2023-05-21T03:18:01;11.10;;;8.70;;
8540;SDS011;4308;51.294;6.590;2023-05-21T03:20:28;10.07;;;7.47;;
8540;SDS011;4308;51.294;6.590;2023-05-21T03:22:56;12.00;;;9.67;;
8540;SDS011;4308;51.294;6.590;2023-05-21T03:25:23;12.47;;;8.87;;
8540;SDS011;4308;51.294;6.590;2023-05-21T03:27:52;11.77;;;9.00;;
8540;SDS011;4308;51.294;6.590;2023-05-21T03:30:20;11.30;;;8.70;;
8540;SDS011;4308;51.294;6.590;2023-05-21T03:32:47;17.00;;;10.00;;
8540;SDS011;4308;51.294;6.590;2023-05-21T03:35:15;8.43;;;7.03;;
8540;SDS011;4308;51.294;6.590;2023-05-21T03:37:43;13.97;;;9.10;;
8540;SDS011;4308;51.294;6.590;2023-05-21T03:40:10;11.70;;;7.50;;
8540;SDS011;4308;51.294;6.590;2023-05-21T03:42:38;10.67;;;8.10;;
8540;SDS011;4308;51.294;6.590;2023-05-21T03:45:06;12.83;;;9.07;;
8540;SDS011;4308;51.294;6.590;2023-05-21T03:47:33;12.33;;;8.10;;
8540;SDS011;4308;51.294;6.590;2023-05-21T03:50:01;12.87;;;8.53;;
8540;SDS011;4308;51.294;6.590;2023-05-21T03:52:29;9.90;;;7.77;;
8540;SDS011;4308;51.294;6.590;2023-05-21T03:54:57;10.90;;;8.43;;
8540;SDS011;4308;51.294;6.590;2023-05-21T03:57:24;13.10;;;9.90;;
8540;SDS011;4308;51.294;6.590;2023-05-21T03:59:52;12.07;;;8.10;;
8540;SDS011;4308;51.294;6.590;2023-05-21T04:02:20;13.30;;;10.10;;
8540;SDS011;4308;51.294;6.590;2023-05-21T04:04:48;10.87;;;8.30;;
8540;SDS011;4308;51.294;6.590;2023-05-21T04:07:15;14.30;;;9.90;;
8540;SDS011;4308;51.294;6.590;2023-05-21T04:09:43;12.73;;;9.27;;
8540;SDS011;4308;51.294;6.590;2023-05-21T04:12:11;11.83;;;7.13;;
8540;SDS011;4308;51.294;6.590;2023-05-21T04:14:38;14.70;;;7.80;;
8540;SDS011;4308;51.294;6.590;2023-05-21T04:17:06;15.63;;;9.67;;
8540;SDS011;4308;51.294;6.590;2023-05-21T04:19:34;12.07;;;7.97;;
8540;SDS011;4308;51.294;6.590;2023-05-21T04:22:01;12.20;;;8.90;;
8540;SDS011;4308;51.294;6.590;2023-05-21T04:24:29;11.87;;;9.43;;
8540;SDS011;4308;51.294;6.590;2023-05-21T04:26:57;13.50;;;10.13;;
8540;SDS011;4308;51.294;6.590;2023-05-21T04:29:24;15.07;;;8.93;;
8540;SDS011;4308;51.294;6.590;2023-05-21T04:31:52;10.63;;;8.27;;
8540;SDS011;4308;51.294;6.590;2023-05-21T04:34:20;13.90;;;10.03;;
8540;SDS011;4308;51.294;6.590;2023-05-21T04:36:47;11.67;;;9.07;;
8540;SDS011;4308;51.294;6.590;2023-05-21T04:39:15;13.10;;;9.33;;
8540;SDS011;4308;51.294;6.590;2023-05-21T04:41:42;14.13;;;9.57;;
8540;SDS011;4308;51.294;6.590;2023-05-21T04:44:10;15.33;;;9.70;;
8540;SDS011;4308;51.294;6.590;2023-05-21T04:46:37;12.60;;;9.13;;
8540;SDS011;4308;51.294;6.590;2023-05-21T04:49:08;13.20;;;9.07;;
8540;SDS011;4308;51.294;6.590;2023-05-21T04:51:36;12.43;;;8.73;;
8540;SDS011;4308;51.294;6.590;2023-05-21T04:54:03;12.40;;;8.33;;
8540;SDS011;4308;51.294;6.590;2023-05-21T04:56:31;12.60;;;9.40;;
8540;SDS011;4308;51.294;6.590;2023-05-21T04:58:59;11.13;;;8.73;;
8540;SDS011;4308;51.294;6.590;2023-05-21T05:01:28;12.67;;;9.90;;
8540;SDS011;4308;51.294;6.590;2023-05-21T05:03:55;12.70;;;9.80;;
8540;SDS011;4308;51.294;6.590;2023-05-21T05:06:23;13.13;;;9.37;;
8540;SDS011;4308;51.294;6.590;2023-05-21T05:08:51;13.70;;;9.40;;
8540;SDS011;4308;51.294;6.590;2023-05-21T05:11:18;11.10;;;9.67;;
8540;SDS011;4308;51.294;6.590;2023-05-21T05:13:46;12.60;;;8.47;;
8540;SDS011;4308;51.294;6.590;2023-05-21T05:16:14;13.17;;;9.23;;
8540;SDS011;4308;51.294;6.590;2023-05-21T05:18:44;11.97;;;9.30;;
8540;SDS011;4308;51.294;6.590;2023-05-21T05:21:12;15.47;;;9.67;;
8540;SDS011;4308;51.294;6.590;2023-05-21T05:23:39;12.47;;;9.00;;
8540;SDS011;4308;51.294;6.590;2023-05-21T05:26:07;12.27;;;8.47;;
8540;SDS011;4308;51.294;6.590;2023-05-21T05:28:35;10.23;;;8.80;;
8540;SDS011;4308;51.294;6.590;2023-05-21T05:31:02;9.17;;;7.47;;
8540;SDS011;4308;51.294;6.590;2023-05-21T05:33:30;11.80;;;9.17;;
8540;SDS011;4308;51.294;6.590;2023-05-21T05:35:57;12.07;;;8.97;;
8540;SDS011;4308;51.294;6.590;2023-05-21T05:38:25;11.90;;;8.97;;
8540;SDS011;4308;51.294;6.590;2023-05-21T05:40:53;12.07;;;7.60;;
8540;SDS011;4308;51.294;6.590;2023-05-21T05:43:20;12.77;;;8.23;;
8540;SDS011;4308;51.294;6.590;2023-05-21T05:45:48;12.57;;;10.17;;
8540;SDS011;4308;51.294;6.590;2023-05-21T05:48:15;14.57;;;9.27;;
8540;SDS011;4308;51.294;6.590;2023-05-21T05:50:43;15.50;;;9.40;;
8540;SDS011;4308;51.294;6.590;2023-05-21T05:53:11;11.43;;;8.67;;
8540;SDS011;4308;51.294;6.590;2023-05-21T05:55:39;11.37;;;8.80;;
8540;SDS011;4308;51.294;6.590;2023-05-21T05:58:06;10.13;;;8.90;;
8540;SDS011;4308;51.294;6.590;2023-05-21T06:00:34;9.43;;;7.73;;
8540;SDS011;4308;51.294;6.590;2023-05-21T06:03:02;10.83;;;9.27;;
8540;SDS011;4308;51.294;6.590;2023-05-21T06:05:30;10.67;;;9.30;;
8540;SDS011;4308;51.294;6.590;2023-05-21T06:07:57;11.13;;;8.90;;
8540;SDS011;4308;51.294;6.590;2023-05-21T06:10:25;12.97;;;7.03;;
8540;SDS011;4308;51.294;6.590;2023-05-21T06:12:52;11.27;;;8.73;;
8540;SDS011;4308;51.294;6.590;2023-05-21T06:15:20;12.97;;;9.40;;
8540;SDS011;4308;51.294;6.590;2023-05-21T06:17:48;8.87;;;6.30;;
8540;SDS011;4308;51.294;6.590;2023-05-21T06:20:15;13.83;;;8.80;;
8540;SDS011;4308;51.294;6.590;2023-05-21T06:22:43;14.07;;;9.03;;
8540;SDS011;4308;51.294;6.590;2023-05-21T06:25:14;11.70;;;9.33;;
8540;SDS011;4308;51.294;6.590;2023-05-21T06:27:41;8.63;;;6.37;;
8540;SDS011;4308;51.294;6.590;2023-05-21T06:30:11;11.50;;;8.00;;
8540;SDS011;4308;51.294;6.590;2023-05-21T06:32:39;10.33;;;8.27;;
8540;SDS011;4308;51.294;6.590;2023-05-21T06:35:07;10.17;;;7.07;;
8540;SDS011;4308;51.294;6.590;2023-05-21T06:37:37;11.10;;;9.53;;
8540;SDS011;4308;51.294;6.590;2023-05-21T06:40:05;14.53;;;9.40;;
8540;SDS011;4308;51.294;6.590;2023-05-21T06:42:33;12.37;;;9.67;;
8540;SDS011;4308;51.294;6.590;2023-05-21T06:45:00;11.33;;;10.00;;
8540;SDS011;4308;51.294;6.590;2023-05-21T06:47:28;12.63;;;10.53;;
8540;SDS011;4308;51.294;6.590;2023-05-21T06:49:56;13.57;;;10.57;;
8540;SDS011;4308;51.294;6.590;2023-05-21T06:52:23;10.67;;;8.43;;
8540;SDS011;4308;51.294;6.590;2023-05-21T06:54:51;11.20;;;10.03;;
8540;SDS011;4308;51.294;6.590;2023-05-21T06:57:19;14.10;;;8.37;;
8540;SDS011;4308;51.294;6.590;2023-05-21T06:59:46;13.03;;;9.87;;
8540;SDS011;4308;51.294;6.590;2023-05-21T07:02:14;12.40;;;10.63;;
8540;SDS011;4308;51.294;6.590;2023-05-21T07:04:41;13.10;;;9.43;;
8540;SDS011;4308;51.294;6.590;2023-05-21T07:07:09;18.33;;;14.13;;
8540;SDS011;4308;51.294;6.590;2023-05-21T07:09:37;19.77;;;12.77;;
8540;SDS011;4308;51.294;6.590;2023-05-21T07:12:05;22.70;;;13.57;;
8540;SDS011;4308;51.294;6.590;2023-05-21T07:14:32;18.10;;;12.30;;
8540;SDS011;4308;51.294;6.590;2023-05-21T07:17:00;12.50;;;10.13;;
8540;SDS011;4308;51.294;6.590;2023-05-21T07:19:28;11.63;;;9.33;;
8540;SDS011;4308;51.294;6.590;2023-05-21T07:21:56;12.13;;;8.47;;
8540;SDS011;4308;51.294;6.590;2023-05-21T07:24:23;12.20;;;10.90;;
8540;SDS011;4308;51.294;6.590;2023-05-21T07:26:51;13.67;;;10.50;;
8540;SDS011;4308;51.294;6.590;2023-05-21T07:29:19;12.67;;;9.60;;
8540;SDS011;4308;51.294;6.590;2023-05-21T07:31:46;13.97;;;10.40;;
8540;SDS011;4308;51.294;6.590;2023-05-21T07:34:14;11.30;;;8.63;;
8540;SDS011;4308;51.294;6.590;2023-05-21T07:36:42;14.37;;;11.60;;
8540;SDS011;4308;51.294;6.590;2023-05-21T07:39:09;16.80;;;8.73;;
8540;SDS011;4308;51.294;6.590;2023-05-21T07:41:37;13.93;;;10.83;;
8540;SDS011;4308;51.294;6.590;2023-05-21T07:44:05;17.23;;;12.33;;
8540;SDS011;4308;51.294;6.590;2023-05-21T07:46:32;13.17;;;10.03;;
8540;SDS011;4308;51.294;6.590;2023-05-21T07:49:00;14.73;;;11.40;;
8540;SDS011;4308;51.294;6.590;2023-05-21T07:51:28;14.30;;;11.73;;
8540;SDS011;4308;51.294;6.590;2023-05-21T07:53:55;13.73;;;10.40;;
8540;SDS011;4308;51.294;6.590;2023-05-21T07:56:25;16.90;;;12.13;;
8540;SDS011;4308;51.294;6.590;2023-05-21T07:58:52;14.50;;;11.00;;
8540;SDS011;4308;51.294;6.590;2023-05-21T08:01:20;16.43;;;11.80;;
8540;SDS011;4308;51.294;6.590;2023-05-21T08:03:47;16.30;;;10.67;;
8540;SDS011;4308;51.294;6.590;2023-05-21T08:06:15;20.03;;;12.90;;
8540;SDS011;4308;51.294;6.590;2023-05-21T08:08:43;18.13;;;11.40;;
8540;SDS011;4308;51.294;6.590;2023-05-21T08:11:11;12.70;;;10.23;;
8540;SDS011;4308;51.294;6.590;2023-05-21T08:13:38;14.07;;;8.33;;
8540;SDS011;4308;51.294;6.590;2023-05-21T08:16:06;11.30;;;8.60;;
8540;SDS011;4308;51.294;6.590;2023-05-21T08:18:34;16.20;;;11.73;;
8540;SDS011;4308;51.294;6.590;2023-05-21T08:21:01;14.17;;;10.20;;
8540;SDS011;4308;51.294;6.590;2023-05-21T08:23:29;17.53;;;13.37;;
8540;SDS011;4308;51.294;6.590;2023-05-21T08:25:57;16.10;;;11.43;;
8540;SDS011;4308;51.294;6.590;2023-05-21T08:28:24;15.07;;;11.70;;
8540;SDS011;4308;51.294;6.590;2023-05-21T08:30:52;13.93;;;11.53;;
8540;SDS011;4308;51.294;6.590;2023-05-21T08:33:19;17.73;;;10.27;;
8540;SDS011;4308;51.294;6.590;2023-05-21T08:35:47;15.60;;;10.50;;
8540;SDS011;4308;51.294;6.590;2023-05-21T08:38:15;15.87;;;12.27;;
8540;SDS011;4308;51.294;6.590;2023-05-21T08:40:44;16.67;;;11.23;;
8540;SDS011;4308;51.294;6.590;2023-05-21T08:43:12;12.73;;;9.47;;
8540;SDS011;4308;51.294;6.590;2023-05-21T08:45:40;16.33;;;12.20;;
8540;SDS011;4308;51.294;6.590;2023-05-21T08:48:09;13.30;;;10.97;;
8540;SDS011;4308;51.294;6.590;2023-05-21T08:50:36;11.53;;;10.27;;
8540;SDS011;4308;51.294;6.590;2023-05-21T08:53:04;15.47;;;11.27;;
8540;SDS011;4308;51.294;6.590;2023-05-21T08:55:45;16.53;;;12.73;;
8540;SDS011;4308;51.294;6.590;2023-05-21T08:58:13;12.90;;;11.33;;
8540;SDS011;4308;51.294;6.590;2023-05-21T09:00:40;16.47;;;11.70;;
8540;SDS011;4308;51.294;6.590;2023-05-21T09:03:09;15.67;;;13.73;;
8540;SDS011;4308;51.294;6.590;2023-05-21T09:05:46;17.47;;;13.20;;
8540;SDS011;4308;51.294;6.590;2023-05-21T09:08:18;14.90;;;11.57;;
8540;SDS011;4308;51.294;6.590;2023-05-21T09:10:49;15.00;;;12.70;;
8540;SDS011;4308;51.294;6.590;2023-05-21T09:13:18;15.50;;;13.40;;
8540;SDS011;4308;51.294;6.590;2023-05-21T09:15:46;16.73;;;13.37;;
8540;SDS011;4308;51.294;6.590;2023-05-21T09:18:14;16.57;;;13.60;;
8540;SDS011;4308;51.294;6.590;2023-05-21T09:20:41;14.53;;;10.93;;
8540;SDS011;4308;51.294;6.590;2023-05-21T09:23:09;23.27;;;15.30;;
8540;SDS011;4308;51.294;6.590;2023-05-21T09:25:37;14.27;;;10.60;;
8540;SDS011;4308;51.294;6.590;2023-05-21T09:28:14;13.43;;;10.40;;
8540;SDS011;4308;51.294;6.590;2023-05-21T09:30:42;15.30;;;11.87;;
8540;SDS011;4308;51.294;6.590;2023-05-21T09:33:10;15.70;;;9.30;;
8540;SDS011;4308;51.294;6.590;2023-05-21T09:35:44;18.50;;;13.60;;
8540;SDS011;4308;51.294;6.590;2023-05-21T09:38:11;14.10;;;12.60;;
8540;SDS011;4308;51.294;6.590;2023-05-21T09:40:42;14.73;;;11.73;;
8540;SDS011;4308;51.294;6.590;2023-05-21T09:43:12;16.50;;;13.07;;
8540;SDS011;4308;51.294;6.590;2023-05-21T09:45:53;14.90;;;13.23;;
8540;SDS011;4308;51.294;6.590;2023-05-21T09:48:37;14.53;;;12.30;;
8540;SDS011;4308;51.294;6.590;2023-05-21T09:53:48;16.97;;;10.30;;
8540;SDS011;4308;51.294;6.590;2023-05-21T09:56:17;15.03;;;12.57;;
8540;SDS011;4308;51.294;6.590;2023-05-21T09:58:45;13.57;;;11.90;;
8540;SDS011;4308;51.294;6.590;2023-05-21T10:01:12;13.23;;;11.87;;
8540;SDS011;4308;51.294;6.590;2023-05-21T10:03:40;13.93;;;12.53;;
8540;SDS011;4308;51.294;6.590;2023-05-21T10:06:09;15.10;;;12.53;;
8540;SDS011;4308;51.294;6.590;2023-05-21T10:08:38;15.27;;;12.97;;
8540;SDS011;4308;51.294;6.590;2023-05-21T10:11:08;13.80;;;12.30;;
8540;SDS011;4308;51.294;6.590;2023-05-21T10:13:38;13.97;;;12.47;;
8540;SDS011;4308;51.294;6.590;2023-05-21T10:16:07;16.50;;;12.13;;
8540;SDS011;4308;51.294;6.590;2023-05-21T10:18:36;15.37;;;13.03;;
8540;SDS011;4308;51.294;6.590;2023-05-21T10:21:04;15.03;;;12.87;;
8540;SDS011;4308;51.294;6.590;2023-05-21T10:23:33;15.63;;;12.27;;
8540;SDS011;4308;51.294;6.590;2023-05-21T10:26:02;15.87;;;12.40;;
8540;SDS011;4308;51.294;6.590;2023-05-21T10:28:30;14.27;;;12.80;;
8540;SDS011;4308;51.294;6.590;2023-05-21T10:30:59;14.83;;;13.33;;
8540;SDS011;4308;51.294;6.590;2023-05-21T10:33:27;15.37;;;13.03;;
8540;SDS011;4308;51.294;6.590;2023-05-21T10:35:56;16.37;;;13.40;;
8540;SDS011;4308;51.294;6.590;2023-05-21T10:38:24;15.70;;;11.87;;
8540;SDS011;4308;51.294;6.590;2023-05-21T10:40:53;15.80;;;13.10;;
8540;SDS011;4308;51.294;6.590;2023-05-21T10:48:25;15.13;;;12.83;;
8540;SDS011;4308;51.294;6.590;2023-05-21T11:01:13;15.20;;;12.60;;
8540;SDS011;4308;51.294;6.590;2023-05-21T11:03:41;14.83;;;13.27;;
8540;SDS011;4308;51.294;6.590;2023-05-21T11:06:09;13.93;;;12.53;;
8540;SDS011;4308;51.294;6.590;2023-05-21T11:08:37;14.57;;;12.23;;
8540;SDS011;4308;51.294;6.590;2023-05-21T11:11:04;15.93;;;13.37;;
8540;SDS011;4308;51.294;6.590;2023-05-21T11:13:45;16.03;;;13.30;;
8540;SDS011;4308;51.294;6.590;2023-05-21T11:16:14;18.47;;;13.77;;
8540;SDS011;4308;51.294;6.590;2023-05-21T11:21:10;17.03;;;14.23;;
8540;SDS011;4308;51.294;6.590;2023-05-21T11:26:21;16.87;;;13.20;;
8540;SDS011;4308;51.294;6.590;2023-05-21T11:28:49;15.17;;;13.03;;
8540;SDS011;4308;51.294;6.590;2023-05-21T11:31:23;18.80;;;13.60;;
8540;SDS011;4308;51.294;6.590;2023-05-21T11:36:38;22.13;;;15.73;;
8540;SDS011;4308;51.294;6.590;2023-05-21T11:39:09;17.73;;;14.03;;
8540;SDS011;4308;51.294;6.590;2023-05-21T11:44:39;14.80;;;12.77;;
8540;SDS011;4308;51.294;6.590;2023-05-21T11:47:11;14.70;;;13.00;;
8540;SDS011;4308;51.294;6.590;2023-05-21T11:49:39;13.90;;;12.40;;
8540;SDS011;4308;51.294;6.590;2023-05-21T11:52:07;15.27;;;13.67;;
8540;SDS011;4308;51.294;6.590;2023-05-21T11:57:08;21.73;;;15.10;;
8540;SDS011;4308;51.294;6.590;2023-05-21T11:59:36;16.73;;;14.37;;
8540;SDS011;4308;51.294;6.590;2023-05-21T12:02:04;17.37;;;12.00;;
8540;SDS011;4308;51.294;6.590;2023-05-21T12:04:32;20.67;;;12.10;;
8540;SDS011;4308;51.294;6.590;2023-05-21T12:07:02;13.87;;;10.83;;
8540;SDS011;4308;51.294;6.590;2023-05-21T12:09:29;17.80;;;14.33;;
8540;SDS011;4308;51.294;6.590;2023-05-21T12:11:57;15.40;;;11.57;;
8540;SDS011;4308;51.294;6.590;2023-05-21T12:14:24;18.77;;;14.00;;
8540;SDS011;4308;51.294;6.590;2023-05-21T12:16:52;16.73;;;13.13;;
8540;SDS011;4308;51.294;6.590;2023-05-21T12:19:22;17.23;;;12.90;;
8540;SDS011;4308;51.294;6.590;2023-05-21T12:21:50;19.50;;;15.47;;
8540;SDS011;4308;51.294;6.590;2023-05-21T12:24:18;19.37;;;15.63;;
8540;SDS011;4308;51.294;6.590;2023-05-21T12:26:46;16.33;;;13.07;;
8540;SDS011;4308;51.294;6.590;2023-05-21T12:29:13;17.50;;;12.83;;
8540;SDS011;4308;51.294;6.590;2023-05-21T12:31:47;18.93;;;15.23;;
8540;SDS011;4308;51.294;6.590;2023-05-21T12:34:15;17.30;;;13.87;;
8540;SDS011;4308;51.294;6.590;2023-05-21T12:37:03;18.97;;;14.63;;
8540;SDS011;4308;51.294;6.590;2023-05-21T12:39:31;16.53;;;13.77;;
8540;SDS011;4308;51.294;6.590;2023-05-21T12:42:00;15.83;;;11.80;;
8540;SDS011;4308;51.294;6.590;2023-05-21T12:44:30;17.77;;;14.27;;
8540;SDS011;4308;51.294;6.590;2023-05-21T12:46:58;15.60;;;12.40;;
8540;SDS011;4308;51.294;6.590;2023-05-21T12:49:29;17.63;;;15.27;;
8540;SDS011;4308;51.294;6.590;2023-05-21T12:51:57;18.60;;;14.60;;
8540;SDS011;4308;51.294;6.590;2023-05-21T12:54:29;18.40;;;14.17;;
8540;SDS011;4308;51.294;6.590;2023-05-21T12:56:56;15.63;;;14.03;;
8540;SDS011;4308;51.294;6.590;2023-05-21T12:59:24;14.13;;;8.97;;
8540;SDS011;4308;51.294;6.590;2023-05-21T13:01:52;17.27;;;13.93;;
8540;SDS011;4308;51.294;6.590;2023-05-21T13:04:19;16.73;;;13.53;;
8540;SDS011;4308;51.294;6.590;2023-05-21T13:06:47;18.90;;;14.83;;
8540;SDS011;4308;51.294;6.590;2023-05-21T13:09:15;19.50;;;14.23;;
8540;SDS011;4308;51.294;6.590;2023-05-21T13:11:42;15.47;;;10.20;;
8540;SDS011;4308;51.294;6.590;2023-05-21T13:14:10;17.17;;;14.57;;
8540;SDS011;4308;51.294;6.590;2023-05-21T13:16:37;16.17;;;14.17;;
8540;SDS011;4308;51.294;6.590;2023-05-21T13:19:05;19.07;;;12.03;;
8540;SDS011;4308;51.294;6.590;2023-05-21T13:21:33;20.50;;;14.70;;
8540;SDS011;4308;51.294;6.590;2023-05-21T13:24:00;20.33;;;14.70;;
8540;SDS011;4308;51.294;6.590;2023-05-21T13:26:28;20.57;;;14.47;;
8540;SDS011;4308;51.294;6.590;2023-05-21T13:28:56;16.60;;;13.23;;
8540;SDS011;4308;51.294;6.590;2023-05-21T13:31:23;16.00;;;12.20;;
8540;SDS011;4308;51.294;6.590;2023-05-21T13:33:51;18.17;;;12.73;;
8540;SDS011;4308;51.294;6.590;2023-05-21T13:36:19;17.90;;;14.43;;
8540;SDS011;4308;51.294;6.590;2023-05-21T13:38:46;19.03;;;15.43;;
8540;SDS011;4308;51.294;6.590;2023-05-21T13:41:14;19.20;;;14.73;;
8540;SDS011;4308;51.294;6.590;2023-05-21T13:43:42;19.80;;;14.27;;
8540;SDS011;4308;51.294;6.590;2023-05-21T13:46:09;17.60;;;15.00;;
8540;SDS011;4308;51.294;6.590;2023-05-21T13:48:37;16.90;;;12.80;;
8540;SDS011;4308;51.294;6.590;2023-05-21T13:51:04;18.20;;;15.17;;
8540;SDS011;4308;51.294;6.590;2023-05-21T13:53:32;18.80;;;14.07;;
8540;SDS011;4308;51.294;6.590;2023-05-21T13:56:00;19.20;;;14.93;;
8540;SDS011;4308;51.294;6.590;2023-05-21T13:58:27;16.87;;;13.33;;
8540;SDS011;4308;51.294;6.590;2023-05-21T14:00:55;17.33;;;13.63;;
8540;SDS011;4308;51.294;6.590;2023-05-21T14:03:23;14.57;;;12.37;;
8540;SDS011;4308;51.294;6.590;2023-05-21T14:05:50;14.50;;;12.83;;
8540;SDS011;4308;51.294;6.590;2023-05-21T14:08:18;18.47;;;13.30;;
8540;SDS011;4308;51.294;6.590;2023-05-21T14:10:46;18.60;;;13.57;;
8540;SDS011;4308;51.294;6.590;2023-05-21T14:13:14;14.97;;;12.37;;
8540;SDS011;4308;51.294;6.590;2023-05-21T14:15:46;14.97;;;10.97;;
8540;SDS011;4308;51.294;6.590;2023-05-21T14:18:13;16.80;;;13.30;;
8540;SDS011;4308;51.294;6.590;2023-05-21T14:20:41;16.37;;;13.30;;
8540;SDS011;4308;51.294;6.590;2023-05-21T14:23:08;15.63;;;13.10;;
8540;SDS011;4308;51.294;6.590;2023-05-21T14:25:36;15.13;;;12.80;;
8540;SDS011;4308;51.294;6.590;2023-05-21T14:28:04;19.63;;;13.47;;
8540;SDS011;4308;51.294;6.590;2023-05-21T14:30:32;15.80;;;14.07;;
8540;SDS011;4308;51.294;6.590;2023-05-21T14:32:59;15.63;;;13.60;;
8540;SDS011;4308;51.294;6.590;2023-05-21T14:35:27;15.03;;;13.43;;
8540;SDS011;4308;51.294;6.590;2023-05-21T14:37:55;16.30;;;13.47;;
8540;SDS011;4308;51.294;6.590;2023-05-21T14:40:23;15.93;;;13.27;;
8540;SDS011;4308;51.294;6.590;2023-05-21T14:42:50;15.87;;;13.63;;
8540;SDS011;4308;51.294;6.590;2023-05-21T14:45:18;14.63;;;12.93;;
8540;SDS011;4308;51.294;6.590;2023-05-21T14:47:46;14.77;;;12.57;;
8540;SDS011;4308;51.294;6.590;2023-05-21T14:50:14;18.83;;;13.90;;
8540;SDS011;4308;51.294;6.590;2023-05-21T14:52:41;15.80;;;13.63;;
8540;SDS011;4308;51.294;6.590;2023-05-21T14:55:09;15.10;;;13.33;;
8540;SDS011;4308;51.294;6.590;2023-05-21T14:57:37;14.93;;;12.13;;
8540;SDS011;4308;51.294;6.590;2023-05-21T15:00:05;17.13;;;13.70;;
8540;SDS011;4308;51.294;6.590;2023-05-21T15:02:33;17.00;;;13.10;;
8540;SDS011;4308;51.294;6.590;2023-05-21T15:05:00;15.07;;;12.97;;
8540;SDS011;4308;51.294;6.590;2023-05-21T15:07:28;16.80;;;12.53;;
8540;SDS011;4308;51.294;6.590;2023-05-21T15:09:56;14.30;;;12.60;;
8540;SDS011;4308;51.294;6.590;2023-05-21T15:12:24;14.80;;;13.03;;
8540;SDS011;4308;51.294;6.590;2023-05-21T15:14:51;14.63;;;11.87;;
8540;SDS011;4308;51.294;6.590;2023-05-21T15:17:19;12.97;;;11.20;;
8540;SDS011;4308;51.294;6.590;2023-05-21T15:19:47;15.27;;;13.33;;
8540;SDS011;4308;51.294;6.590;2023-05-21T15:22:14;17.03;;;11.73;;
8540;SDS011;4308;51.294;6.590;2023-05-21T15:24:42;16.10;;;12.13;;
8540;SDS011;4308;51.294;6.590;2023-05-21T15:27:10;14.83;;;11.80;;
8540;SDS011;4308;51.294;6.590;2023-05-21T15:29:37;13.50;;;10.67;;
8540;SDS011;4308;51.294;6.590;2023-05-21T15:32:05;17.43;;;12.40;;